createdAt,value
2019-02-14T00:00:12.487Z,20.85
2019-02-14T00:02:41.257Z,20.27
2019-02-14T00:05:16.277Z,22.30
2019-02-14T00:07:40.715Z,20.70
2019-02-14T00:10:09.602Z,22.67
2019-02-14T00:12:38.713Z,25.82
2019-02-14T00:15:08.474Z,17.90
2019-02-14T00:17:37.266Z,26.50
2019-02-14T00:20:06.865Z,24.00
2019-02-14T00:22:35.650Z,25.68
2019-02-14T00:25:04.911Z,29.87
2019-02-14T00:27:33.704Z,26.68
2019-02-14T00:30:03.303Z,31.27
2019-02-14T00:32:32.404Z,25.80
2019-02-14T00:35:01.269Z,26.37
2019-02-14T00:37:30.064Z,27.22
2019-02-14T00:39:58.909Z,21.62
2019-02-14T00:42:27.691Z,25.12
2019-02-14T00:44:56.461Z,22.87
2019-02-14T00:47:25.249Z,21.62
2019-02-14T00:49:54.040Z,23.40
2019-02-14T00:52:22.833Z,24.85
2019-02-14T00:54:51.637Z,30.95
2019-02-14T00:57:20.412Z,26.07
2019-02-14T00:59:49.504Z,24.02
2019-02-14T01:02:18.293Z,23.60
2019-02-14T01:04:47.955Z,23.90
2019-02-14T01:07:16.744Z,17.45
2019-02-14T01:09:45.517Z,19.50
2019-02-14T01:12:14.949Z,23.67
2019-02-14T01:14:44.173Z,19.98
2019-02-14T01:17:13.232Z,22.95
2019-02-14T01:19:42.011Z,17.55
2019-02-14T01:22:10.811Z,24.85
2019-02-14T01:24:39.580Z,20.20
2019-02-14T01:27:08.441Z,19.57
2019-02-14T01:29:37.801Z,22.73
2019-02-14T01:32:07.205Z,19.80
2019-02-14T01:34:36.372Z,24.43
2019-02-14T01:37:05.171Z,20.75
2019-02-14T01:39:33.956Z,16.77
2019-02-14T01:42:02.917Z,18.77
2019-02-14T01:44:32.061Z,19.32
2019-02-14T01:47:01.266Z,14.85
2019-02-14T01:49:30.046Z,17.35
2019-02-14T01:51:58.829Z,17.45
2019-02-14T01:54:28.273Z,17.48
2019-02-14T01:56:57.353Z,18.55
2019-02-14T01:59:26.135Z,18.02
2019-02-14T02:01:55.544Z,18.92
2019-02-14T02:04:24.323Z,16.35
2019-02-14T02:06:53.124Z,15.70
2019-02-14T02:09:22.201Z,19.55
2019-02-14T02:11:51.048Z,19.48
2019-02-14T02:14:19.851Z,19.15
2019-02-14T02:16:48.689Z,19.32
2019-02-14T02:19:17.860Z,19.00
2019-02-14T02:21:46.989Z,17.32
2019-02-14T02:24:15.797Z,17.23
2019-02-14T02:26:44.585Z,18.90
2019-02-14T02:29:13.626Z,20.50
2019-02-14T02:31:42.418Z,21.17
2019-02-14T02:34:11.203Z,21.25
2019-02-14T02:36:40.134Z,18.52
2019-02-14T02:39:09.502Z,22.62
2019-02-14T02:41:38.279Z,19.10
2019-02-14T02:44:09.026Z,15.38
2019-02-14T02:46:37.875Z,16.95
2019-02-14T02:49:06.805Z,18.57
2019-02-14T02:51:35.577Z,16.73
2019-02-14T02:54:04.785Z,15.55
2019-02-14T02:56:33.878Z,16.27
2019-02-14T02:59:03.288Z,26.05
2019-02-14T03:01:32.073Z,18.15
2019-02-14T03:04:01.173Z,17.70
2019-02-14T03:06:29.961Z,15.78
2019-02-14T03:08:58.743Z,18.45
2019-02-14T03:11:27.533Z,23.32
2019-02-14T03:13:56.394Z,16.15
2019-02-14T03:16:25.182Z,22.00
2019-02-14T03:18:53.977Z,17.27
2019-02-14T03:21:22.749Z,15.32
2019-02-14T03:23:51.533Z,18.23
2019-02-14T03:26:20.381Z,18.45
2019-02-14T03:28:49.174Z,17.52
2019-02-14T03:31:18.262Z,16.10
2019-02-14T03:33:47.074Z,21.15
2019-02-14T03:36:19.245Z,23.15
2019-02-14T03:38:46.417Z,17.80
2019-02-14T03:41:15.197Z,19.12
2019-02-14T03:43:43.961Z,24.43
2019-02-14T03:46:13.017Z,15.88
2019-02-14T03:48:41.794Z,28.15
2019-02-14T03:51:10.642Z,17.60
2019-02-14T03:53:39.593Z,14.75
2019-02-14T03:56:08.382Z,14.53
2019-02-14T03:58:37.155Z,14.87
2019-02-14T04:01:06.085Z,19.20
2019-02-14T04:03:34.865Z,13.48
2019-02-14T04:06:03.732Z,16.75
2019-02-14T04:08:32.573Z,17.52
2019-02-14T04:11:01.365Z,12.93
2019-02-14T04:13:30.118Z,15.30
2019-02-14T04:15:59.213Z,19.73
2019-02-14T04:18:28.003Z,19.30
2019-02-14T04:20:57.049Z,17.37
2019-02-14T04:23:25.830Z,17.75
2019-02-14T04:25:55.265Z,16.57
2019-02-14T04:28:24.054Z,22.48
2019-02-14T04:30:52.866Z,20.35
2019-02-14T04:33:21.654Z,17.80
2019-02-14T04:35:50.441Z,17.87
2019-02-14T04:38:19.209Z,18.40
2019-02-14T04:40:47.975Z,15.25
2019-02-14T04:43:16.739Z,16.62
2019-02-14T04:45:45.521Z,17.55
2019-02-14T04:48:14.297Z,17.75
2019-02-14T04:50:43.081Z,15.80
2019-02-14T04:53:11.853Z,16.93
2019-02-14T04:55:40.645Z,18.50
2019-02-14T04:58:09.715Z,46.60
2019-02-14T05:00:38.593Z,40.83
2019-02-14T05:03:07.388Z,49.05
2019-02-14T05:05:36.478Z,58.10
2019-02-14T05:08:05.698Z,65.57
2019-02-14T05:10:34.790Z,40.35
2019-02-14T05:13:03.980Z,27.00
2019-02-14T05:15:33.101Z,27.35
2019-02-14T05:18:02.170Z,32.33
2019-02-14T05:20:30.941Z,41.25
2019-02-14T05:22:59.736Z,52.75
2019-02-14T05:25:28.513Z,36.33
2019-02-14T05:27:57.310Z,55.90
2019-02-14T05:30:26.153Z,45.45
2019-02-14T05:32:55.225Z,39.58
2019-02-14T05:35:24.000Z,44.35
2019-02-14T05:37:53.773Z,55.52
2019-02-14T05:40:22.893Z,62.60
2019-02-14T05:42:51.995Z,40.55
2019-02-14T05:45:20.768Z,49.70
2019-02-14T05:47:49.722Z,42.50
2019-02-14T05:50:19.381Z,38.40
2019-02-14T05:52:48.213Z,37.35
2019-02-14T05:55:17.123Z,36.95
2019-02-14T05:57:45.978Z,31.73
2019-02-14T06:00:15.497Z,33.42
2019-02-14T06:02:44.693Z,33.80
2019-02-14T06:05:13.549Z,36.03
2019-02-14T06:07:42.366Z,32.95
2019-02-14T06:10:11.396Z,33.02
2019-02-14T06:12:40.177Z,28.62
2019-02-14T06:15:09.239Z,31.87
2019-02-14T06:17:38.098Z,35.68
2019-02-14T06:20:07.843Z,26.12
2019-02-14T06:22:36.635Z,25.15
2019-02-14T06:25:05.641Z,27.42
2019-02-14T06:27:34.794Z,33.98
2019-02-14T06:30:03.849Z,38.92
2019-02-14T06:32:32.633Z,64.05
2019-02-14T06:35:01.413Z,39.33
2019-02-14T06:37:30.176Z,38.45
2019-02-14T06:39:58.966Z,34.40
2019-02-14T06:42:27.756Z,24.00
2019-02-14T06:44:56.542Z,28.55
2019-02-14T06:47:25.333Z,32.05
2019-02-14T06:49:54.406Z,40.63
2019-02-14T06:52:23.484Z,34.40
2019-02-14T06:54:52.260Z,33.65
2019-02-14T06:57:21.049Z,27.32
2019-02-14T06:59:49.820Z,29.27
2019-02-14T07:02:18.628Z,28.77
2019-02-14T07:04:47.405Z,28.25
2019-02-14T07:07:18.712Z,21.95
2019-02-14T07:09:46.698Z,21.57
2019-02-14T07:12:15.837Z,21.82
2019-02-14T07:14:44.605Z,20.08
2019-02-14T07:17:13.401Z,24.72
2019-02-14T07:19:42.261Z,22.90
2019-02-14T07:22:11.029Z,19.02
2019-02-14T07:24:39.816Z,25.85
2019-02-14T07:27:08.595Z,17.82
2019-02-14T07:29:37.762Z,20.75
2019-02-14T07:32:06.549Z,19.90
2019-02-14T07:34:35.653Z,22.25
2019-02-14T07:37:04.852Z,19.67
2019-02-14T07:39:33.944Z,19.80
2019-02-14T07:42:02.802Z,33.48
2019-02-14T07:44:32.032Z,44.23
2019-02-14T07:47:00.823Z,35.45
2019-02-14T07:49:30.250Z,32.03
2019-02-14T07:51:59.268Z,24.10
2019-02-14T07:54:28.078Z,22.32
2019-02-14T07:56:56.863Z,19.10
2019-02-14T07:59:25.662Z,20.40
2019-02-14T08:01:54.435Z,21.17
2019-02-14T08:04:23.566Z,24.00
2019-02-14T08:06:52.654Z,18.57
2019-02-14T08:09:21.454Z,17.98
2019-02-14T08:11:50.229Z,17.92
2019-02-14T08:14:19.031Z,20.00
2019-02-14T08:16:48.122Z,19.25
2019-02-14T08:19:16.910Z,25.90
2019-02-14T08:21:45.698Z,18.80
2019-02-14T08:24:15.194Z,15.50
2019-02-14T08:26:44.289Z,24.12
2019-02-14T08:29:13.083Z,15.98
2019-02-14T08:31:42.174Z,15.60
2019-02-14T08:34:10.970Z,20.12
2019-02-14T08:36:39.759Z,20.32
2019-02-14T08:39:08.565Z,20.80
2019-02-14T08:41:37.346Z,17.23
2019-02-14T08:44:06.142Z,15.28
2019-02-14T08:46:34.921Z,15.48
2019-02-14T08:49:03.727Z,19.20
2019-02-14T08:51:32.669Z,16.52
2019-02-14T08:54:01.555Z,15.95
2019-02-14T08:56:30.674Z,20.85
2019-02-14T08:58:59.762Z,17.60
2019-02-14T09:01:28.533Z,15.32
2019-02-14T09:03:57.326Z,14.78
2019-02-14T09:06:26.111Z,16.30
2019-02-14T09:08:55.135Z,14.95
2019-02-14T09:11:24.165Z,16.48
2019-02-14T09:13:52.987Z,19.00
2019-02-14T09:16:21.815Z,19.12
2019-02-14T09:18:50.842Z,19.15
2019-02-14T09:21:19.940Z,17.10
2019-02-14T09:23:48.720Z,20.27
2019-02-14T09:26:17.510Z,32.45
2019-02-14T09:28:46.306Z,15.30
2019-02-14T09:31:15.177Z,16.70
2019-02-14T09:33:43.968Z,19.10
2019-02-14T09:36:13.003Z,22.87
2019-02-14T09:38:41.857Z,21.30
2019-02-14T09:41:10.889Z,16.77
2019-02-14T09:43:39.678Z,12.20
2019-02-14T09:46:08.497Z,16.27
2019-02-14T09:48:37.277Z,13.53
2019-02-14T09:51:06.139Z,13.67
2019-02-14T09:53:34.933Z,12.50
2019-02-14T09:56:03.706Z,13.80
2019-02-14T09:58:32.487Z,12.90
2019-02-14T10:01:01.361Z,12.60
2019-02-14T10:03:30.218Z,20.27
2019-02-14T10:05:59.005Z,13.83
2019-02-14T10:08:27.828Z,13.13
2019-02-14T10:10:56.586Z,13.37
2019-02-14T10:13:25.382Z,19.93
2019-02-14T10:15:54.166Z,16.53
2019-02-14T10:18:23.223Z,15.13
2019-02-14T10:20:52.006Z,16.50
2019-02-14T10:23:20.807Z,17.30
2019-02-14T10:25:49.595Z,18.03
2019-02-14T10:28:18.373Z,18.13
2019-02-14T10:30:47.478Z,19.80
2019-02-14T10:33:16.575Z,15.20
2019-02-14T10:35:45.441Z,16.80
2019-02-14T10:38:22.089Z,16.70
2019-02-14T10:41:34.070Z,20.13
2019-02-14T10:47:31.664Z,15.63
2019-02-14T10:50:00.545Z,15.10
2019-02-14T10:52:30.129Z,15.50
2019-02-14T10:55:08.337Z,15.97
2019-02-14T10:57:37.113Z,21.00
2019-02-14T11:00:16.220Z,15.80
2019-02-14T11:02:49.740Z,21.10
2019-02-14T11:05:18.966Z,16.60
2019-02-14T11:07:47.920Z,17.67
2019-02-14T11:10:17.114Z,15.93
2019-02-14T11:12:48.994Z,16.43
2019-02-14T11:15:19.252Z,16.07
2019-02-14T11:17:49.031Z,19.50
2019-02-14T11:20:18.403Z,15.70
2019-02-14T11:22:49.042Z,14.70
2019-02-14T11:25:24.073Z,31.33
2019-02-14T11:27:53.329Z,19.87
2019-02-14T11:30:22.142Z,17.30
2019-02-14T11:32:52.846Z,22.10
2019-02-14T11:35:21.654Z,17.10
2019-02-14T11:37:50.638Z,17.67
2019-02-14T11:40:22.369Z,17.37
2019-02-14T11:42:51.510Z,17.00
2019-02-14T11:45:20.567Z,19.43
2019-02-14T11:47:49.535Z,19.03
2019-02-14T11:50:18.697Z,18.43
2019-02-14T11:52:48.970Z,19.63
2019-02-14T11:55:18.036Z,23.80
2019-02-14T11:57:48.319Z,18.53
2019-02-14T12:00:21.054Z,21.00
2019-02-14T12:02:55.720Z,22.67
2019-02-14T12:05:21.370Z,20.43
2019-02-14T12:07:50.165Z,21.43
2019-02-14T12:10:19.415Z,13.77
2019-02-14T12:12:48.199Z,14.53
2019-02-14T12:15:17.032Z,13.03
2019-02-14T12:17:45.860Z,18.00
2019-02-14T12:20:15.049Z,16.90
2019-02-14T12:22:46.670Z,21.53
2019-02-14T12:25:14.772Z,16.90
2019-02-14T12:27:43.586Z,13.87
2019-02-14T12:30:13.795Z,24.13
2019-02-14T12:33:02.059Z,16.27
2019-02-14T12:35:30.873Z,17.73
2019-02-14T12:37:59.665Z,14.40
2019-02-14T12:40:28.808Z,13.47
2019-02-14T12:42:57.974Z,14.27
2019-02-14T12:45:26.864Z,16.73
2019-02-14T12:47:55.887Z,9.50
2019-02-14T12:50:24.992Z,10.93
2019-02-14T12:52:53.792Z,12.50
2019-02-14T12:55:22.593Z,11.73
2019-02-14T12:57:51.399Z,10.37
2019-02-14T13:00:21.209Z,10.30
2019-02-14T13:02:50.068Z,10.40
2019-02-14T13:05:18.945Z,9.47
2019-02-14T13:07:47.749Z,10.50
2019-02-14T13:10:16.736Z,10.80
2019-02-14T13:12:45.790Z,12.90
2019-02-14T13:15:16.828Z,11.50
2019-02-14T13:17:45.633Z,12.40
2019-02-14T13:20:14.637Z,10.67
2019-02-14T13:22:43.433Z,8.03
2019-02-14T13:25:13.037Z,9.10
2019-02-14T13:27:41.825Z,7.60
2019-02-14T13:30:13.625Z,10.00
2019-02-14T13:32:42.564Z,10.60
2019-02-14T13:35:11.451Z,8.43
2019-02-14T13:37:40.607Z,8.90
2019-02-14T13:40:10.254Z,7.80
2019-02-14T13:42:39.123Z,11.90
2019-02-14T13:45:10.460Z,9.93
2019-02-14T13:47:39.506Z,8.13
2019-02-14T13:50:09.561Z,9.00
2019-02-14T13:52:38.346Z,7.83
2019-02-14T13:55:07.331Z,9.00
2019-02-14T13:57:36.437Z,7.63
2019-02-14T14:00:07.913Z,8.60
2019-02-14T14:02:36.704Z,13.10
2019-02-14T14:05:05.661Z,10.07
2019-02-14T14:07:40.462Z,9.63
2019-02-14T14:10:05.156Z,9.53
2019-02-14T14:15:11.380Z,11.50
2019-02-14T14:17:40.175Z,11.20
2019-02-14T14:20:09.318Z,9.70
2019-02-14T14:22:38.260Z,9.93
2019-02-14T14:25:07.468Z,9.57
2019-02-14T14:27:36.332Z,12.67
2019-02-14T14:30:05.917Z,13.03
2019-02-14T14:32:34.718Z,10.33
2019-02-14T14:35:03.689Z,11.00
2019-02-14T14:37:32.482Z,12.03
2019-02-14T14:40:01.293Z,13.80
2019-02-14T14:42:52.046Z,11.40
2019-02-14T14:45:30.971Z,13.73
2019-02-14T14:47:59.765Z,13.20
2019-02-14T14:50:28.804Z,14.33
2019-02-14T14:52:57.865Z,22.83
2019-02-14T14:55:26.977Z,11.43
2019-02-14T14:57:55.787Z,18.53
2019-02-14T15:00:24.823Z,8.43
2019-02-14T15:02:53.657Z,16.40
2019-02-14T15:05:22.711Z,14.83
2019-02-14T15:07:51.518Z,13.03
2019-02-14T15:10:20.312Z,11.20
2019-02-14T15:12:49.269Z,11.87
2019-02-14T15:15:18.322Z,13.27
2019-02-14T15:17:47.096Z,11.60
2019-02-14T15:20:15.877Z,15.30
2019-02-14T15:22:44.689Z,12.80
2019-02-14T15:25:13.727Z,15.30
2019-02-14T15:27:42.777Z,15.37
2019-02-14T15:30:11.804Z,22.83
2019-02-14T15:32:40.873Z,15.03
2019-02-14T15:35:09.737Z,16.20
2019-02-14T15:37:41.831Z,16.57
2019-02-14T15:40:10.714Z,13.17
2019-02-14T15:42:39.756Z,15.07
2019-02-14T15:45:08.804Z,12.27
2019-02-14T15:47:37.957Z,11.20
2019-02-14T15:50:08.909Z,12.60
2019-02-14T15:52:37.495Z,10.53
2019-02-14T15:55:06.769Z,13.73
2019-02-14T15:57:35.580Z,16.53
2019-02-14T16:00:07.093Z,12.20
2019-02-14T16:02:35.386Z,11.80
2019-02-14T16:05:04.703Z,19.07
2019-02-14T16:07:33.515Z,13.80
2019-02-14T16:10:04.678Z,13.13
2019-02-14T16:12:32.827Z,18.00
2019-02-14T16:15:01.908Z,15.90
2019-02-14T16:17:31.007Z,13.40
2019-02-14T16:19:59.866Z,13.43
2019-02-14T16:22:30.261Z,9.67
2019-02-14T16:24:59.228Z,13.70
2019-02-14T16:27:30.461Z,12.83
2019-02-14T16:29:59.511Z,16.63
2019-02-14T16:32:28.317Z,18.93
2019-02-14T16:34:57.104Z,17.60
2019-02-14T16:37:25.965Z,14.77
2019-02-14T16:39:56.787Z,18.93
2019-02-14T16:42:25.532Z,23.13
2019-02-14T16:44:54.915Z,21.77
2019-02-14T16:47:23.703Z,17.63
2019-02-14T16:49:52.785Z,22.43
2019-02-14T16:52:21.905Z,17.13
2019-02-14T16:54:50.710Z,13.50
2019-02-14T16:57:19.516Z,23.73
2019-02-14T16:59:50.736Z,21.30
2019-02-14T17:02:19.608Z,16.73
2019-02-14T17:04:48.929Z,19.07
2019-02-14T17:07:17.984Z,23.45
2019-02-14T17:09:46.792Z,22.80
2019-02-14T17:12:15.602Z,21.65
2019-02-14T17:14:44.754Z,21.30
2019-02-14T17:17:13.656Z,25.95
2019-02-14T17:19:42.473Z,98.80
2019-02-14T17:22:11.284Z,52.10
2019-02-14T17:24:40.078Z,30.68
2019-02-14T17:27:08.901Z,34.58
2019-02-14T17:29:37.764Z,32.05
2019-02-14T17:32:06.845Z,23.02
2019-02-14T17:34:35.811Z,20.05
2019-02-14T17:37:04.601Z,21.70
2019-02-14T17:39:33.418Z,25.90
2019-02-14T17:42:02.277Z,30.68
2019-02-14T17:44:31.585Z,22.37
2019-02-14T17:47:00.610Z,24.82
2019-02-14T17:49:29.410Z,25.77
2019-02-14T17:51:58.312Z,19.60
2019-02-14T17:54:27.186Z,23.30
2019-02-14T17:56:56.072Z,16.32
2019-02-14T17:59:25.184Z,24.27
2019-02-14T18:01:54.577Z,17.32
2019-02-14T18:04:23.412Z,17.30
2019-02-14T18:06:53.609Z,15.48
2019-02-14T18:09:22.725Z,17.55
2019-02-14T18:11:52.257Z,17.40
2019-02-14T18:14:21.373Z,13.95
2019-02-14T18:16:50.160Z,27.13
2019-02-14T18:19:18.958Z,20.60
2019-02-14T18:21:52.176Z,23.57
2019-02-14T18:24:18.813Z,14.47
2019-02-14T18:26:47.997Z,15.20
2019-02-14T18:29:16.852Z,14.80
2019-02-14T18:31:46.068Z,16.42
2019-02-14T18:34:15.609Z,21.68
2019-02-14T18:36:44.403Z,20.32
2019-02-14T18:39:13.199Z,22.22
2019-02-14T18:41:42.066Z,25.30
2019-02-14T18:44:10.841Z,19.70
2019-02-14T18:46:39.920Z,18.62
2019-02-14T18:49:08.697Z,20.05
2019-02-14T18:51:37.489Z,36.33
2019-02-14T18:54:06.855Z,22.37
2019-02-14T18:56:35.685Z,22.07
2019-02-14T18:59:04.564Z,18.95
2019-02-14T19:01:33.351Z,17.35
2019-02-14T19:04:02.139Z,18.87
2019-02-14T19:06:30.937Z,13.55
2019-02-14T19:09:00.001Z,20.00
2019-02-14T19:11:28.803Z,22.17
2019-02-14T19:13:57.592Z,18.12
2019-02-14T19:16:27.231Z,19.55
2019-02-14T19:18:56.349Z,18.75
2019-02-14T19:21:25.637Z,15.65
2019-02-14T19:23:55.825Z,14.15
2019-02-14T19:26:24.670Z,18.77
2019-02-14T19:28:53.466Z,18.27
2019-02-14T19:31:22.505Z,18.30
2019-02-14T19:33:51.314Z,20.88
2019-02-14T19:36:20.110Z,23.73
2019-02-14T19:38:48.890Z,24.67
2019-02-14T19:41:25.063Z,26.30
2019-02-14T19:43:48.707Z,22.35
2019-02-14T19:46:17.495Z,21.68
2019-02-14T19:48:46.298Z,21.02
2019-02-14T19:51:15.178Z,22.87
2019-02-14T19:53:43.966Z,20.10
2019-02-14T19:56:13.006Z,23.57
2019-02-14T19:58:42.046Z,17.12
2019-02-14T20:01:11.092Z,17.70
2019-02-14T20:03:40.294Z,27.58
2019-02-14T20:06:09.358Z,20.10
2019-02-14T20:08:40.762Z,22.35
2019-02-14T20:11:09.704Z,24.02
2019-02-14T20:13:38.957Z,19.42
2019-02-14T20:16:07.773Z,22.25
2019-02-14T20:18:36.697Z,29.92
2019-02-14T20:21:05.476Z,26.68
2019-02-14T20:23:34.300Z,27.67
2019-02-14T20:26:03.346Z,39.15
2019-02-14T20:28:32.153Z,34.45
2019-02-14T20:31:00.954Z,27.77
2019-02-14T20:33:29.857Z,25.45
2019-02-14T20:35:58.904Z,34.90
2019-02-14T20:38:27.956Z,25.70
2019-02-14T20:40:56.769Z,28.92
2019-02-14T20:43:25.828Z,25.52
2019-02-14T20:45:54.705Z,23.27
2019-02-14T20:48:23.523Z,27.05
2019-02-14T20:50:52.625Z,25.00
2019-02-14T20:53:21.744Z,27.55
2019-02-14T20:55:50.525Z,24.85
2019-02-14T20:58:19.525Z,29.42
2019-02-14T21:00:48.746Z,27.70
2019-02-14T21:03:17.629Z,24.92
2019-02-14T21:05:46.946Z,27.20
2019-02-14T21:08:16.460Z,27.67
2019-02-14T21:10:45.389Z,26.00
2019-02-14T21:13:14.333Z,22.48
2019-02-14T21:15:43.706Z,24.57
2019-02-14T21:18:12.721Z,28.70
2019-02-14T21:20:42.245Z,22.30
2019-02-14T21:23:11.420Z,33.83
2019-02-14T21:25:40.354Z,29.15
2019-02-14T21:28:09.235Z,34.33
2019-02-14T21:30:38.111Z,37.08
2019-02-14T21:33:07.004Z,32.05
2019-02-14T21:35:36.366Z,30.15
2019-02-14T21:38:05.241Z,33.35
2019-02-14T21:40:34.041Z,32.00
2019-02-14T21:43:03.500Z,33.42
2019-02-14T21:45:32.537Z,37.38
2019-02-14T21:48:01.323Z,31.87
2019-02-14T21:50:30.471Z,29.32
2019-02-14T21:52:59.342Z,31.05
2019-02-14T21:55:28.138Z,32.65
2019-02-14T21:57:57.287Z,27.35
2019-02-14T22:00:26.444Z,34.33
2019-02-14T22:02:55.383Z,27.02
2019-02-14T22:05:26.095Z,25.23
2019-02-14T22:07:54.848Z,32.33
2019-02-14T22:10:23.991Z,27.40
2019-02-14T22:12:53.090Z,31.77
2019-02-14T22:15:22.118Z,29.27
2019-02-14T22:17:51.088Z,24.02
2019-02-14T22:20:21.985Z,30.15
2019-02-14T22:22:50.789Z,22.85
2019-02-14T22:25:20.246Z,25.90
2019-02-14T22:27:49.334Z,24.72
2019-02-14T22:30:18.485Z,28.27
2019-02-14T22:32:47.667Z,20.23
2019-02-14T22:35:16.789Z,24.77
2019-02-14T22:37:45.905Z,29.35
2019-02-14T22:40:14.911Z,30.97
2019-02-14T22:42:47.088Z,28.90
2019-02-14T22:45:15.403Z,31.93
2019-02-14T22:47:44.918Z,27.00
2019-02-14T22:50:14.004Z,25.10
2019-02-14T22:52:42.879Z,31.95
2019-02-14T22:55:12.188Z,27.77
2019-02-14T22:57:41.045Z,28.32
2019-02-14T23:00:19.308Z,26.42
2019-02-14T23:02:48.801Z,33.05
2019-02-14T23:05:17.863Z,22.60
2019-02-14T23:07:46.669Z,27.05
2019-02-14T23:10:15.466Z,33.88
2019-02-14T23:12:44.273Z,24.20
2019-02-14T23:15:13.068Z,18.05
2019-02-14T23:17:41.873Z,21.87
2019-02-14T23:20:10.695Z,21.75
2019-02-14T23:22:39.483Z,22.05
2019-02-14T23:25:08.359Z,24.07
2019-02-14T23:27:37.150Z,23.90
2019-02-14T23:30:06.845Z,25.97
2019-02-14T23:32:35.790Z,21.17
2019-02-14T23:35:04.748Z,23.83
2019-02-14T23:37:33.777Z,25.35
2019-02-14T23:40:02.578Z,22.35
2019-02-14T23:42:31.377Z,24.32
2019-02-14T23:45:00.429Z,25.40
2019-02-14T23:47:29.308Z,24.20
2019-02-14T23:49:58.121Z,23.80
2019-02-14T23:52:27.165Z,25.37
2019-02-14T23:54:55.971Z,24.00
2019-02-14T23:57:24.765Z,21.77
2019-02-14T23:59:53.569Z,26.05
